sensor_id;sensor_type;location;lat;lon;timestamp;P1;durP1;ratioP1;P2;durP2;ratioP2
55423;SDS011;41294;42.666;23.350;2023-05-31T00:00:02;7.03;;;6.27;;
55423;SDS011;41294;42.666;23.350;2023-05-31T00:02:28;6.30;;;5.70;;
55423;SDS011;41294;42.666;23.350;2023-05-31T00:04:54;7.10;;;6.40;;
55423;SDS011;41294;42.666;23.350;2023-05-31T00:07:20;6.10;;;5.60;;
55423;SDS011;41294;42.666;23.350;2023-05-31T00:09:45;6.65;;;6.10;;
55423;SDS011;41294;42.666;23.350;2023-05-31T00:12:11;6.43;;;5.93;;
55423;SDS011;41294;42.666;23.350;2023-05-31T00:14:36;6.65;;;5.90;;
55423;SDS011;41294;42.666;23.350;2023-05-31T00:17:01;6.40;;;5.90;;
55423;SDS011;41294;42.666;23.350;2023-05-31T00:19:27;7.57;;;6.10;;
55423;SDS011;41294;42.666;23.350;2023-05-31T00:21:52;6.05;;;5.47;;
55423;SDS011;41294;42.666;23.350;2023-05-31T00:24:20;6.55;;;6.05;;
55423;SDS011;41294;42.666;23.350;2023-05-31T00:26:45;7.55;;;6.13;;
55423;SDS011;41294;42.666;23.350;2023-05-31T00:29:10;6.80;;;6.20;;
55423;SDS011;41294;42.666;23.350;2023-05-31T00:31:36;6.70;;;5.97;;
55423;SDS011;41294;42.666;23.350;2023-05-31T00:34:01;7.90;;;6.38;;
55423;SDS011;41294;42.666;23.350;2023-05-31T00:36:27;6.87;;;6.17;;
55423;SDS011;41294;42.666;23.350;2023-05-31T00:38:52;6.72;;;6.13;;
55423;SDS011;41294;42.666;23.350;2023-05-31T00:41:17;10.02;;;6.50;;
55423;SDS011;41294;42.666;23.350;2023-05-31T00:43:43;6.93;;;6.30;;
55423;SDS011;41294;42.666;23.350;2023-05-31T00:46:09;7.33;;;6.63;;
55423;SDS011;41294;42.666;23.350;2023-05-31T00:48:43;8.10;;;6.20;;
55423;SDS011;41294;42.666;23.350;2023-05-31T00:51:10;6.78;;;6.07;;
55423;SDS011;41294;42.666;23.350;2023-05-31T00:53:37;6.67;;;5.97;;
55423;SDS011;41294;42.666;23.350;2023-05-31T00:56:02;6.82;;;6.18;;
55423;SDS011;41294;42.666;23.350;2023-05-31T00:58:29;6.93;;;6.23;;
55423;SDS011;41294;42.666;23.350;2023-05-31T01:00:56;6.00;;;5.50;;
55423;SDS011;41294;42.666;23.350;2023-05-31T01:03:22;8.30;;;6.18;;
55423;SDS011;41294;42.666;23.350;2023-05-31T01:05:48;7.78;;;5.93;;
55423;SDS011;41294;42.666;23.350;2023-05-31T01:08:14;7.40;;;6.25;;
55423;SDS011;41294;42.666;23.350;2023-05-31T01:10:40;6.30;;;5.70;;
55423;SDS011;41294;42.666;23.350;2023-05-31T01:13:16;6.57;;;5.97;;
55423;SDS011;41294;42.666;23.350;2023-05-31T01:15:55;6.05;;;5.55;;
55423;SDS011;41294;42.666;23.350;2023-05-31T01:18:27;6.50;;;5.68;;
55423;SDS011;41294;42.666;23.350;2023-05-31T01:21:01;7.88;;;6.03;;
55423;SDS011;41294;42.666;23.350;2023-05-31T01:28:42;5.93;;;5.38;;
55423;SDS011;41294;42.666;23.350;2023-05-31T01:31:10;6.15;;;5.30;;
55423;SDS011;41294;42.666;23.350;2023-05-31T01:33:39;5.75;;;5.25;;
55423;SDS011;41294;42.666;23.350;2023-05-31T01:36:06;6.85;;;5.75;;
55423;SDS011;41294;42.666;23.350;2023-05-31T01:38:31;6.05;;;5.35;;
55423;SDS011;41294;42.666;23.350;2023-05-31T01:40:57;7.38;;;5.40;;
55423;SDS011;41294;42.666;23.350;2023-05-31T01:43:24;6.22;;;5.30;;
55423;SDS011;41294;42.666;23.350;2023-05-31T01:45:51;6.13;;;5.53;;
55423;SDS011;41294;42.666;23.350;2023-05-31T01:48:18;6.47;;;5.75;;
55423;SDS011;41294;42.666;23.350;2023-05-31T01:50:44;5.97;;;5.38;;
55423;SDS011;41294;42.666;23.350;2023-05-31T01:53:10;6.25;;;5.60;;
55423;SDS011;41294;42.666;23.350;2023-05-31T01:55:35;6.53;;;5.55;;
55423;SDS011;41294;42.666;23.350;2023-05-31T01:58:01;8.13;;;5.60;;
55423;SDS011;41294;42.666;23.350;2023-05-31T02:00:27;6.20;;;5.68;;
55423;SDS011;41294;42.666;23.350;2023-05-31T02:02:54;6.53;;;5.80;;
55423;SDS011;41294;42.666;23.350;2023-05-31T02:05:20;5.97;;;5.20;;
55423;SDS011;41294;42.666;23.350;2023-05-31T02:07:46;5.65;;;4.75;;
55423;SDS011;41294;42.666;23.350;2023-05-31T02:10:13;5.80;;;5.00;;
55423;SDS011;41294;42.666;23.350;2023-05-31T02:12:38;5.47;;;4.75;;
55423;SDS011;41294;42.666;23.350;2023-05-31T02:15:04;6.50;;;5.53;;
55423;SDS011;41294;42.666;23.350;2023-05-31T02:17:36;5.80;;;4.97;;
55423;SDS011;41294;42.666;23.350;2023-05-31T02:20:06;5.90;;;5.30;;
55423;SDS011;41294;42.666;23.350;2023-05-31T02:22:35;11.25;;;5.25;;
55423;SDS011;41294;42.666;23.350;2023-05-31T02:25:00;8.02;;;5.25;;
55423;SDS011;41294;42.666;23.350;2023-05-31T02:27:26;5.97;;;5.45;;
55423;SDS011;41294;42.666;23.350;2023-05-31T02:29:54;6.38;;;4.97;;
55423;SDS011;41294;42.666;23.350;2023-05-31T02:32:19;5.38;;;4.88;;
55423;SDS011;41294;42.666;23.350;2023-05-31T02:34:44;5.47;;;5.00;;
55423;SDS011;41294;42.666;23.350;2023-05-31T02:37:10;6.35;;;5.32;;
55423;SDS011;41294;42.666;23.350;2023-05-31T02:39:36;5.63;;;5.13;;
55423;SDS011;41294;42.666;23.350;2023-05-31T02:42:01;6.00;;;5.35;;
55423;SDS011;41294;42.666;23.350;2023-05-31T02:44:27;5.93;;;5.35;;
55423;SDS011;41294;42.666;23.350;2023-05-31T02:46:52;6.90;;;5.30;;
55423;SDS011;41294;42.666;23.350;2023-05-31T02:49:17;5.65;;;4.90;;
55423;SDS011;41294;42.666;23.350;2023-05-31T02:51:43;5.80;;;5.13;;
55423;SDS011;41294;42.666;23.350;2023-05-31T02:54:08;5.93;;;5.10;;
55423;SDS011;41294;42.666;23.350;2023-05-31T02:56:34;7.60;;;5.07;;
55423;SDS011;41294;42.666;23.350;2023-05-31T02:58:59;6.20;;;5.60;;
55423;SDS011;41294;42.666;23.350;2023-05-31T03:01:25;6.60;;;6.00;;
55423;SDS011;41294;42.666;23.350;2023-05-31T03:03:51;6.88;;;5.72;;
55423;SDS011;41294;42.666;23.350;2023-05-31T03:06:17;11.60;;;8.65;;
55423;SDS011;41294;42.666;23.350;2023-05-31T03:08:44;11.93;;;10.63;;
55423;SDS011;41294;42.666;23.350;2023-05-31T03:11:10;12.48;;;10.52;;
55423;SDS011;41294;42.666;23.350;2023-05-31T03:13:35;15.02;;;11.20;;
55423;SDS011;41294;42.666;23.350;2023-05-31T03:16:00;11.73;;;10.52;;
55423;SDS011;41294;42.666;23.350;2023-05-31T03:18:26;13.77;;;10.48;;
55423;SDS011;41294;42.666;23.350;2023-05-31T03:20:51;14.23;;;11.30;;
55423;SDS011;41294;42.666;23.350;2023-05-31T03:23:17;15.00;;;11.20;;
55423;SDS011;41294;42.666;23.350;2023-05-31T03:25:42;12.18;;;10.30;;
55423;SDS011;41294;42.666;23.350;2023-05-31T03:28:07;12.57;;;10.45;;
55423;SDS011;41294;42.666;23.350;2023-05-31T03:30:33;15.05;;;10.05;;
55423;SDS011;41294;42.666;23.350;2023-05-31T03:32:58;14.13;;;9.75;;
55423;SDS011;41294;42.666;23.350;2023-05-31T03:35:23;12.98;;;9.13;;
55423;SDS011;41294;42.666;23.350;2023-05-31T03:37:49;10.23;;;9.23;;
55423;SDS011;41294;42.666;23.350;2023-05-31T03:40:14;9.83;;;8.37;;
55423;SDS011;41294;42.666;23.350;2023-05-31T03:42:40;10.73;;;8.95;;
55423;SDS011;41294;42.666;23.350;2023-05-31T03:45:05;10.77;;;8.65;;
55423;SDS011;41294;42.666;23.350;2023-05-31T03:47:31;11.98;;;8.75;;
55423;SDS011;41294;42.666;23.350;2023-05-31T03:49:57;11.30;;;9.30;;
55423;SDS011;41294;42.666;23.350;2023-05-31T03:52:22;12.60;;;9.63;;
55423;SDS011;41294;42.666;23.350;2023-05-31T03:54:48;12.38;;;9.05;;
55423;SDS011;41294;42.666;23.350;2023-05-31T03:57:13;13.13;;;9.80;;
55423;SDS011;41294;42.666;23.350;2023-05-31T03:59:39;12.50;;;10.38;;
55423;SDS011;41294;42.666;23.350;2023-05-31T04:02:04;15.43;;;10.48;;
55423;SDS011;41294;42.666;23.350;2023-05-31T04:04:30;18.02;;;11.10;;
55423;SDS011;41294;42.666;23.350;2023-05-31T04:06:55;12.38;;;10.68;;
55423;SDS011;41294;42.666;23.350;2023-05-31T04:09:21;16.40;;;12.02;;
55423;SDS011;41294;42.666;23.350;2023-05-31T04:11:48;16.83;;;12.27;;
55423;SDS011;41294;42.666;23.350;2023-05-31T04:14:14;14.88;;;11.48;;
55423;SDS011;41294;42.666;23.350;2023-05-31T04:16:39;14.20;;;10.85;;
55423;SDS011;41294;42.666;23.350;2023-05-31T04:19:05;13.02;;;9.80;;
55423;SDS011;41294;42.666;23.350;2023-05-31T04:21:30;11.98;;;10.63;;
55423;SDS011;41294;42.666;23.350;2023-05-31T04:23:57;12.18;;;9.35;;
55423;SDS011;41294;42.666;23.350;2023-05-31T04:26:23;11.65;;;9.52;;
55423;SDS011;41294;42.666;23.350;2023-05-31T04:28:49;13.60;;;10.48;;
55423;SDS011;41294;42.666;23.350;2023-05-31T04:31:18;14.40;;;9.73;;
55423;SDS011;41294;42.666;23.350;2023-05-31T04:33:44;12.57;;;10.77;;
55423;SDS011;41294;42.666;23.350;2023-05-31T04:36:10;15.27;;;10.65;;
55423;SDS011;41294;42.666;23.350;2023-05-31T04:38:35;17.08;;;12.07;;
55423;SDS011;41294;42.666;23.350;2023-05-31T04:41:01;14.52;;;10.45;;
55423;SDS011;41294;42.666;23.350;2023-05-31T04:43:26;14.50;;;11.55;;
55423;SDS011;41294;42.666;23.350;2023-05-31T04:45:52;15.02;;;10.82;;
55423;SDS011;41294;42.666;23.350;2023-05-31T04:48:18;12.18;;;10.20;;
55423;SDS011;41294;42.666;23.350;2023-05-31T04:50:44;12.13;;;9.35;;
55423;SDS011;41294;42.666;23.350;2023-05-31T04:53:11;9.02;;;8.00;;
55423;SDS011;41294;42.666;23.350;2023-05-31T04:55:37;9.68;;;8.32;;
55423;SDS011;41294;42.666;23.350;2023-05-31T04:58:03;9.45;;;8.38;;
55423;SDS011;41294;42.666;23.350;2023-05-31T05:00:28;11.18;;;8.80;;
55423;SDS011;41294;42.666;23.350;2023-05-31T05:02:54;9.25;;;8.30;;
55423;SDS011;41294;42.666;23.350;2023-05-31T05:05:19;14.18;;;8.65;;
55423;SDS011;41294;42.666;23.350;2023-05-31T05:07:45;10.43;;;8.88;;
55423;SDS011;41294;42.666;23.350;2023-05-31T05:10:10;10.25;;;7.45;;
55423;SDS011;41294;42.666;23.350;2023-05-31T05:12:35;10.45;;;7.97;;
55423;SDS011;41294;42.666;23.350;2023-05-31T05:15:01;8.43;;;7.63;;
55423;SDS011;41294;42.666;23.350;2023-05-31T05:17:27;10.32;;;6.72;;
55423;SDS011;41294;42.666;23.350;2023-05-31T05:19:52;9.23;;;8.05;;
55423;SDS011;41294;42.666;23.350;2023-05-31T05:22:18;8.35;;;7.53;;
55423;SDS011;41294;42.666;23.350;2023-05-31T05:24:44;9.90;;;7.70;;
55423;SDS011;41294;42.666;23.350;2023-05-31T05:27:09;11.57;;;7.10;;
55423;SDS011;41294;42.666;23.350;2023-05-31T05:29:35;8.65;;;6.78;;
55423;SDS011;41294;42.666;23.350;2023-05-31T05:32:00;10.98;;;7.32;;
55423;SDS011;41294;42.666;23.350;2023-05-31T05:34:25;7.47;;;6.80;;
55423;SDS011;41294;42.666;23.350;2023-05-31T05:36:51;8.05;;;6.95;;
55423;SDS011;41294;42.666;23.350;2023-05-31T05:39:17;8.77;;;7.45;;
55423;SDS011;41294;42.666;23.350;2023-05-31T05:41:43;8.57;;;7.57;;
55423;SDS011;41294;42.666;23.350;2023-05-31T05:44:08;8.85;;;7.78;;
55423;SDS011;41294;42.666;23.350;2023-05-31T05:46:34;14.18;;;8.10;;
55423;SDS011;41294;42.666;23.350;2023-05-31T05:49:00;13.45;;;7.45;;
55423;SDS011;41294;42.666;23.350;2023-05-31T05:51:25;8.57;;;7.68;;
55423;SDS011;41294;42.666;23.350;2023-05-31T05:53:51;8.93;;;7.47;;
55423;SDS011;41294;42.666;23.350;2023-05-31T05:56:17;11.38;;;8.50;;
55423;SDS011;41294;42.666;23.350;2023-05-31T05:58:44;10.13;;;7.97;;
55423;SDS011;41294;42.666;23.350;2023-05-31T06:01:11;9.15;;;7.60;;
55423;SDS011;41294;42.666;23.350;2023-05-31T06:03:44;9.82;;;7.95;;
55423;SDS011;41294;42.666;23.350;2023-05-31T06:06:15;9.35;;;7.40;;
55423;SDS011;41294;42.666;23.350;2023-05-31T06:08:42;9.07;;;8.20;;
55423;SDS011;41294;42.666;23.350;2023-05-31T06:11:08;12.60;;;8.80;;
55423;SDS011;41294;42.666;23.350;2023-05-31T06:13:34;11.50;;;8.43;;
55423;SDS011;41294;42.666;23.350;2023-05-31T06:15:59;9.77;;;8.20;;
55423;SDS011;41294;42.666;23.350;2023-05-31T06:18:25;10.25;;;8.20;;
55423;SDS011;41294;42.666;23.350;2023-05-31T06:20:50;10.10;;;8.05;;
55423;SDS011;41294;42.666;23.350;2023-05-31T06:23:15;9.38;;;8.40;;
55423;SDS011;41294;42.666;23.350;2023-05-31T06:25:41;9.68;;;8.45;;
55423;SDS011;41294;42.666;23.350;2023-05-31T06:28:06;11.95;;;8.35;;
55423;SDS011;41294;42.666;23.350;2023-05-31T06:30:31;11.18;;;8.52;;
55423;SDS011;41294;42.666;23.350;2023-05-31T06:32:57;10.55;;;9.15;;
55423;SDS011;41294;42.666;23.350;2023-05-31T06:35:22;12.13;;;8.20;;
55423;SDS011;41294;42.666;23.350;2023-05-31T06:37:48;9.15;;;8.20;;
55423;SDS011;41294;42.666;23.350;2023-05-31T06:40:16;9.70;;;8.18;;
55423;SDS011;41294;42.666;23.350;2023-05-31T06:42:42;11.57;;;8.85;;
55423;SDS011;41294;42.666;23.350;2023-05-31T06:45:08;9.60;;;8.60;;
55423;SDS011;41294;42.666;23.350;2023-05-31T06:47:33;10.18;;;9.18;;
55423;SDS011;41294;42.666;23.350;2023-05-31T06:50:02;11.73;;;8.77;;
55423;SDS011;41294;42.666;23.350;2023-05-31T06:52:28;10.63;;;9.52;;
55423;SDS011;41294;42.666;23.350;2023-05-31T06:54:54;10.27;;;9.27;;
55423;SDS011;41294;42.666;23.350;2023-05-31T06:57:20;15.38;;;9.45;;
55423;SDS011;41294;42.666;23.350;2023-05-31T06:59:46;12.02;;;10.13;;
55423;SDS011;41294;42.666;23.350;2023-05-31T07:02:11;14.00;;;9.65;;
55423;SDS011;41294;42.666;23.350;2023-05-31T07:04:36;13.43;;;9.90;;
55423;SDS011;41294;42.666;23.350;2023-05-31T07:07:02;16.13;;;11.82;;
55423;SDS011;41294;42.666;23.350;2023-05-31T07:09:28;15.98;;;11.40;;
55423;SDS011;41294;42.666;23.350;2023-05-31T07:11:54;13.48;;;10.38;;
55423;SDS011;41294;42.666;23.350;2023-05-31T07:14:19;14.20;;;8.90;;
55423;SDS011;41294;42.666;23.350;2023-05-31T07:16:45;10.25;;;8.43;;
55423;SDS011;41294;42.666;23.350;2023-05-31T07:19:10;10.07;;;8.88;;
55423;SDS011;41294;42.666;23.350;2023-05-31T07:21:36;10.90;;;8.73;;
55423;SDS011;41294;42.666;23.350;2023-05-31T07:24:01;9.70;;;7.80;;
55423;SDS011;41294;42.666;23.350;2023-05-31T07:26:26;13.20;;;9.63;;
55423;SDS011;41294;42.666;23.350;2023-05-31T07:28:52;8.77;;;7.88;;
55423;SDS011;41294;42.666;23.350;2023-05-31T07:31:21;9.07;;;7.47;;
55423;SDS011;41294;42.666;23.350;2023-05-31T07:33:48;9.13;;;7.75;;
55423;SDS011;41294;42.666;23.350;2023-05-31T07:36:13;11.85;;;9.25;;
55423;SDS011;41294;42.666;23.350;2023-05-31T07:38:38;9.35;;;8.23;;
55423;SDS011;41294;42.666;23.350;2023-05-31T07:41:04;12.88;;;8.43;;
55423;SDS011;41294;42.666;23.350;2023-05-31T07:43:30;10.40;;;7.20;;
55423;SDS011;41294;42.666;23.350;2023-05-31T07:45:55;9.35;;;6.68;;
55423;SDS011;41294;42.666;23.350;2023-05-31T07:48:22;7.05;;;6.35;;
55423;SDS011;41294;42.666;23.350;2023-05-31T07:50:48;8.50;;;6.72;;
55423;SDS011;41294;42.666;23.350;2023-05-31T07:53:14;8.43;;;6.32;;
55423;SDS011;41294;42.666;23.350;2023-05-31T07:55:40;7.75;;;6.88;;
55423;SDS011;41294;42.666;23.350;2023-05-31T07:58:05;10.32;;;6.93;;
55423;SDS011;41294;42.666;23.350;2023-05-31T08:00:31;7.32;;;6.00;;
55423;SDS011;41294;42.666;23.350;2023-05-31T08:02:56;6.30;;;5.60;;
55423;SDS011;41294;42.666;23.350;2023-05-31T08:05:22;8.95;;;6.28;;
55423;SDS011;41294;42.666;23.350;2023-05-31T08:07:48;8.68;;;7.18;;
55423;SDS011;41294;42.666;23.350;2023-05-31T08:10:14;7.45;;;6.82;;
55423;SDS011;41294;42.666;23.350;2023-05-31T08:12:42;9.43;;;6.43;;
55423;SDS011;41294;42.666;23.350;2023-05-31T08:15:08;7.97;;;5.90;;
55423;SDS011;41294;42.666;23.350;2023-05-31T08:17:35;6.25;;;5.25;;
55423;SDS011;41294;42.666;23.350;2023-05-31T08:20:01;8.55;;;6.68;;
55423;SDS011;41294;42.666;23.350;2023-05-31T08:22:29;8.32;;;7.43;;
55423;SDS011;41294;42.666;23.350;2023-05-31T08:24:55;8.27;;;7.47;;
55423;SDS011;41294;42.666;23.350;2023-05-31T08:27:21;8.38;;;7.05;;
55423;SDS011;41294;42.666;23.350;2023-05-31T08:29:47;9.77;;;7.10;;
55423;SDS011;41294;42.666;23.350;2023-05-31T08:32:12;8.55;;;6.72;;
55423;SDS011;41294;42.666;23.350;2023-05-31T08:34:38;7.78;;;5.97;;
55423;SDS011;41294;42.666;23.350;2023-05-31T08:37:05;8.05;;;7.07;;
55423;SDS011;41294;42.666;23.350;2023-05-31T08:39:30;14.20;;;7.03;;
55423;SDS011;41294;42.666;23.350;2023-05-31T08:42:02;10.25;;;6.38;;
55423;SDS011;41294;42.666;23.350;2023-05-31T08:44:31;7.65;;;6.07;;
55423;SDS011;41294;42.666;23.350;2023-05-31T08:50:01;9.02;;;5.90;;
55423;SDS011;41294;42.666;23.350;2023-05-31T08:52:29;8.25;;;5.50;;
55423;SDS011;41294;42.666;23.350;2023-05-31T08:54:57;6.82;;;6.13;;
55423;SDS011;41294;42.666;23.350;2023-05-31T08:57:23;6.50;;;5.68;;
55423;SDS011;41294;42.666;23.350;2023-05-31T08:59:49;7.45;;;6.10;;
55423;SDS011;41294;42.666;23.350;2023-05-31T09:02:16;8.23;;;6.07;;
55423;SDS011;41294;42.666;23.350;2023-05-31T09:04:42;6.55;;;6.05;;
55423;SDS011;41294;42.666;23.350;2023-05-31T09:07:08;8.18;;;6.68;;
55423;SDS011;41294;42.666;23.350;2023-05-31T09:09:33;9.30;;;7.28;;
55423;SDS011;41294;42.666;23.350;2023-05-31T09:11:59;8.25;;;6.18;;
55423;SDS011;41294;42.666;23.350;2023-05-31T09:14:25;10.27;;;7.57;;
55423;SDS011;41294;42.666;23.350;2023-05-31T09:16:51;9.38;;;6.40;;
55423;SDS011;41294;42.666;23.350;2023-05-31T09:19:16;8.20;;;7.25;;
55423;SDS011;41294;42.666;23.350;2023-05-31T09:21:43;9.65;;;8.63;;
55423;SDS011;41294;42.666;23.350;2023-05-31T09:24:10;9.52;;;8.40;;
55423;SDS011;41294;42.666;23.350;2023-05-31T09:26:48;11.93;;;7.68;;
55423;SDS011;41294;42.666;23.350;2023-05-31T09:29:15;7.85;;;6.95;;
55423;SDS011;41294;42.666;23.350;2023-05-31T09:31:42;8.52;;;6.60;;
55423;SDS011;41294;42.666;23.350;2023-05-31T09:34:22;8.52;;;6.30;;
55423;SDS011;41294;42.666;23.350;2023-05-31T09:37:00;7.78;;;7.00;;
55423;SDS011;41294;42.666;23.350;2023-05-31T09:39:26;5.97;;;5.47;;
55423;SDS011;41294;42.666;23.350;2023-05-31T09:41:52;8.43;;;6.05;;
55423;SDS011;41294;42.666;23.350;2023-05-31T09:44:17;9.63;;;7.55;;
55423;SDS011;41294;42.666;23.350;2023-05-31T09:46:47;7.80;;;7.00;;
55423;SDS011;41294;42.666;23.350;2023-05-31T09:49:12;9.93;;;7.70;;
55423;SDS011;41294;42.666;23.350;2023-05-31T09:51:38;10.27;;;7.15;;
55423;SDS011;41294;42.666;23.350;2023-05-31T09:54:10;9.23;;;7.65;;
55423;SDS011;41294;42.666;23.350;2023-05-31T09:56:40;7.30;;;6.57;;
55423;SDS011;41294;42.666;23.350;2023-05-31T09:59:06;6.90;;;6.30;;
55423;SDS011;41294;42.666;23.350;2023-05-31T10:01:33;7.60;;;6.30;;
55423;SDS011;41294;42.666;23.350;2023-05-31T10:03:59;6.85;;;6.07;;
55423;SDS011;41294;42.666;23.350;2023-05-31T10:06:26;7.18;;;6.50;;
55423;SDS011;41294;42.666;23.350;2023-05-31T10:08:52;8.82;;;7.80;;
55423;SDS011;41294;42.666;23.350;2023-05-31T10:11:19;7.30;;;6.70;;
55423;SDS011;41294;42.666;23.350;2023-05-31T10:13:50;8.73;;;6.22;;
55423;SDS011;41294;42.666;23.350;2023-05-31T10:16:21;7.60;;;6.82;;
55423;SDS011;41294;42.666;23.350;2023-05-31T10:18:50;12.93;;;7.53;;
55423;SDS011;41294;42.666;23.350;2023-05-31T10:26:17;13.25;;;7.18;;
55423;SDS011;41294;42.666;23.350;2023-05-31T10:31:36;6.13;;;5.53;;
55423;SDS011;41294;42.666;23.350;2023-05-31T10:34:21;4.97;;;4.47;;
55423;SDS011;41294;42.666;23.350;2023-05-31T10:36:52;6.35;;;4.20;;
55423;SDS011;41294;42.666;23.350;2023-05-31T10:39:26;5.53;;;4.15;;
55423;SDS011;41294;42.666;23.350;2023-05-31T10:42:12;8.40;;;4.32;;
55423;SDS011;41294;42.666;23.350;2023-05-31T10:44:48;6.85;;;5.00;;
55423;SDS011;41294;42.666;23.350;2023-05-31T10:47:24;4.88;;;4.43;;
55423;SDS011;41294;42.666;23.350;2023-05-31T10:49:58;6.70;;;3.85;;
55423;SDS011;41294;42.666;23.350;2023-05-31T10:52:28;5.43;;;4.55;;
55423;SDS011;41294;42.666;23.350;2023-05-31T10:55:12;6.32;;;4.47;;
55423;SDS011;41294;42.666;23.350;2023-05-31T10:57:40;7.85;;;5.18;;
55423;SDS011;41294;42.666;23.350;2023-05-31T11:00:07;7.88;;;6.30;;
55423;SDS011;41294;42.666;23.350;2023-05-31T11:02:34;6.55;;;5.43;;
55423;SDS011;41294;42.666;23.350;2023-05-31T11:07:50;8.32;;;5.80;;
55423;SDS011;41294;42.666;23.350;2023-05-31T11:10:29;9.40;;;5.53;;
55423;SDS011;41294;42.666;23.350;2023-05-31T11:13:02;6.80;;;6.10;;
55423;SDS011;41294;42.666;23.350;2023-05-31T11:15:39;8.77;;;6.40;;
55423;SDS011;41294;42.666;23.350;2023-05-31T11:18:09;9.32;;;8.23;;
55423;SDS011;41294;42.666;23.350;2023-05-31T11:20:38;7.45;;;6.70;;
55423;SDS011;41294;42.666;23.350;2023-05-31T11:23:52;8.77;;;7.68;;
55423;SDS011;41294;42.666;23.350;2023-05-31T11:26:06;7.93;;;7.10;;
55423;SDS011;41294;42.666;23.350;2023-05-31T11:28:49;6.70;;;5.85;;
55423;SDS011;41294;42.666;23.350;2023-05-31T11:31:45;7.72;;;5.38;;
55423;SDS011;41294;42.666;23.350;2023-05-31T11:34:22;5.50;;;4.60;;
55423;SDS011;41294;42.666;23.350;2023-05-31T11:36:49;4.93;;;4.43;;
55423;SDS011;41294;42.666;23.350;2023-05-31T11:39:18;6.10;;;4.20;;
55423;SDS011;41294;42.666;23.350;2023-05-31T11:41:44;6.43;;;4.00;;
55423;SDS011;41294;42.666;23.350;2023-05-31T11:44:10;5.78;;;5.10;;
55423;SDS011;41294;42.666;23.350;2023-05-31T11:46:37;6.38;;;4.40;;
55423;SDS011;41294;42.666;23.350;2023-05-31T11:49:08;6.00;;;5.03;;
55423;SDS011;41294;42.666;23.350;2023-05-31T11:51:34;8.23;;;4.72;;
55423;SDS011;41294;42.666;23.350;2023-05-31T11:54:00;7.97;;;5.00;;
55423;SDS011;41294;42.666;23.350;2023-05-31T11:56:32;5.75;;;4.53;;
55423;SDS011;41294;42.666;23.350;2023-05-31T11:59:04;10.43;;;8.32;;
55423;SDS011;41294;42.666;23.350;2023-05-31T12:01:36;5.63;;;4.85;;
55423;SDS011;41294;42.666;23.350;2023-05-31T12:04:04;8.95;;;5.45;;
55423;SDS011;41294;42.666;23.350;2023-05-31T12:06:30;8.70;;;5.57;;
55423;SDS011;41294;42.666;23.350;2023-05-31T12:08:56;8.48;;;5.90;;
55423;SDS011;41294;42.666;23.350;2023-05-31T12:11:22;11.93;;;6.10;;
55423;SDS011;41294;42.666;23.350;2023-05-31T12:13:48;10.88;;;6.95;;
55423;SDS011;41294;42.666;23.350;2023-05-31T12:16:13;9.50;;;6.78;;
55423;SDS011;41294;42.666;23.350;2023-05-31T12:18:40;11.32;;;7.15;;
55423;SDS011;41294;42.666;23.350;2023-05-31T12:21:08;14.85;;;8.60;;
55423;SDS011;41294;42.666;23.350;2023-05-31T12:23:52;9.95;;;7.30;;
55423;SDS011;41294;42.666;23.350;2023-05-31T12:26:23;8.77;;;6.72;;
55423;SDS011;41294;42.666;23.350;2023-05-31T12:28:49;9.43;;;6.32;;
55423;SDS011;41294;42.666;23.350;2023-05-31T12:31:22;12.45;;;7.65;;
55423;SDS011;41294;42.666;23.350;2023-05-31T12:34:32;7.57;;;5.10;;
55423;SDS011;41294;42.666;23.350;2023-05-31T12:36:42;8.80;;;6.20;;
55423;SDS011;41294;42.666;23.350;2023-05-31T12:41:44;12.38;;;7.47;;
55423;SDS011;41294;42.666;23.350;2023-05-31T12:44:13;9.52;;;6.90;;
55423;SDS011;41294;42.666;23.350;2023-05-31T12:46:45;10.10;;;8.07;;
55423;SDS011;41294;42.666;23.350;2023-05-31T12:51:44;14.40;;;10.30;;
55423;SDS011;41294;42.666;23.350;2023-05-31T12:54:13;11.88;;;9.98;;
55423;SDS011;41294;42.666;23.350;2023-05-31T12:56:41;12.73;;;8.57;;
55423;SDS011;41294;42.666;23.350;2023-05-31T12:59:07;13.15;;;8.52;;
55423;SDS011;41294;42.666;23.350;2023-05-31T13:01:33;11.02;;;7.95;;
55423;SDS011;41294;42.666;23.350;2023-05-31T13:03:59;12.02;;;8.30;;
55423;SDS011;41294;42.666;23.350;2023-05-31T13:06:25;11.20;;;7.47;;
55423;SDS011;41294;42.666;23.350;2023-05-31T13:08:50;10.40;;;7.32;;
55423;SDS011;41294;42.666;23.350;2023-05-31T13:11:16;11.98;;;6.85;;
55423;SDS011;41294;42.666;23.350;2023-05-31T13:13:41;9.15;;;6.80;;
55423;SDS011;41294;42.666;23.350;2023-05-31T13:16:07;9.43;;;7.88;;
55423;SDS011;41294;42.666;23.350;2023-05-31T13:18:33;13.60;;;7.72;;
55423;SDS011;41294;42.666;23.350;2023-05-31T13:20:58;11.07;;;7.43;;
55423;SDS011;41294;42.666;23.350;2023-05-31T13:23:24;12.13;;;7.13;;
55423;SDS011;41294;42.666;23.350;2023-05-31T13:25:50;12.68;;;7.07;;
55423;SDS011;41294;42.666;23.350;2023-05-31T13:28:15;11.35;;;6.50;;
55423;SDS011;41294;42.666;23.350;2023-05-31T13:30:41;8.55;;;5.15;;
55423;SDS011;41294;42.666;23.350;2023-05-31T13:33:07;9.98;;;6.28;;
55423;SDS011;41294;42.666;23.350;2023-05-31T13:35:32;6.45;;;5.50;;
55423;SDS011;41294;42.666;23.350;2023-05-31T13:37:58;8.63;;;6.45;;
55423;SDS011;41294;42.666;23.350;2023-05-31T13:40:23;9.25;;;6.65;;
55423;SDS011;41294;42.666;23.350;2023-05-31T13:42:49;10.32;;;6.88;;
55423;SDS011;41294;42.666;23.350;2023-05-31T13:45:14;9.00;;;7.68;;
55423;SDS011;41294;42.666;23.350;2023-05-31T13:47:40;11.73;;;7.15;;
55423;SDS011;41294;42.666;23.350;2023-05-31T13:50:06;15.70;;;7.65;;
55423;SDS011;41294;42.666;23.350;2023-05-31T13:52:32;12.75;;;8.20;;
55423;SDS011;41294;42.666;23.350;2023-05-31T13:54:57;11.23;;;7.72;;
55423;SDS011;41294;42.666;23.350;2023-05-31T13:57:24;13.45;;;7.18;;
55423;SDS011;41294;42.666;23.350;2023-05-31T13:59:50;9.00;;;7.40;;
55423;SDS011;41294;42.666;23.350;2023-05-31T14:02:16;8.98;;;6.93;;
55423;SDS011;41294;42.666;23.350;2023-05-31T14:04:42;12.13;;;8.02;;
55423;SDS011;41294;42.666;23.350;2023-05-31T14:07:07;11.32;;;7.97;;
55423;SDS011;41294;42.666;23.350;2023-05-31T14:09:33;12.25;;;9.18;;
55423;SDS011;41294;42.666;23.350;2023-05-31T14:11:58;12.18;;;8.63;;
55423;SDS011;41294;42.666;23.350;2023-05-31T14:14:24;12.27;;;10.02;;
55423;SDS011;41294;42.666;23.350;2023-05-31T14:16:50;14.32;;;9.52;;
55423;SDS011;41294;42.666;23.350;2023-05-31T14:19:17;11.18;;;8.43;;
55423;SDS011;41294;42.666;23.350;2023-05-31T14:21:42;10.52;;;6.95;;
55423;SDS011;41294;42.666;23.350;2023-05-31T14:24:08;11.85;;;7.40;;
55423;SDS011;41294;42.666;23.350;2023-05-31T14:26:33;14.43;;;8.63;;
55423;SDS011;41294;42.666;23.350;2023-05-31T14:28:59;9.93;;;8.00;;
55423;SDS011;41294;42.666;23.350;2023-05-31T14:31:24;11.80;;;8.10;;
55423;SDS011;41294;42.666;23.350;2023-05-31T14:33:49;11.20;;;8.73;;
55423;SDS011;41294;42.666;23.350;2023-05-31T14:36:16;9.52;;;8.30;;
55423;SDS011;41294;42.666;23.350;2023-05-31T14:38:41;11.20;;;8.52;;
55423;SDS011;41294;42.666;23.350;2023-05-31T14:41:06;10.15;;;8.55;;
55423;SDS011;41294;42.666;23.350;2023-05-31T14:43:32;10.38;;;9.05;;
55423;SDS011;41294;42.666;23.350;2023-05-31T14:45:57;11.88;;;9.07;;
55423;SDS011;41294;42.666;23.350;2023-05-31T14:48:23;12.15;;;8.90;;
55423;SDS011;41294;42.666;23.350;2023-05-31T14:50:48;11.93;;;8.93;;